sensor_id;sensor_type;location;lat;lon;timestamp;P1;durP1;ratioP1;P2;durP2;ratioP2
13764;SDS011;6953;48.810;9.204;2022-09-09T00:00:21;0.25;;;0.25;;
13764;SDS011;6953;48.810;9.204;2022-09-09T00:02:49;0.30;;;0.30;;
13764;SDS011;6953;48.810;9.204;2022-09-09T00:05:25;0.30;;;0.30;;
13764;SDS011;6953;48.810;9.204;2022-09-09T00:08:07;0.30;;;0.30;;
13764;SDS011;6953;48.810;9.204;2022-09-09T00:10:43;0.25;;;0.25;;
13764;SDS011;6953;48.810;9.204;2022-09-09T00:13:16;0.30;;;0.30;;
13764;SDS011;6953;48.810;9.204;2022-09-09T00:15:54;0.30;;;0.30;;
13764;SDS011;6953;48.810;9.204;2022-09-09T00:18:27;0.28;;;0.28;;
13764;SDS011;6953;48.810;9.204;2022-09-09T00:21:15;0.20;;;0.20;;
13764;SDS011;6953;48.810;9.204;2022-09-09T00:23:55;0.30;;;0.30;;
13764;SDS011;6953;48.810;9.204;2022-09-09T00:26:30;0.30;;;0.30;;
13764;SDS011;6953;48.810;9.204;2022-09-09T00:31:37;0.25;;;0.25;;
13764;SDS011;6953;48.810;9.204;2022-09-09T00:34:05;0.30;;;0.30;;
13764;SDS011;6953;48.810;9.204;2022-09-09T00:36:38;0.30;;;0.30;;
13764;SDS011;6953;48.810;9.204;2022-09-09T00:39:04;0.20;;;0.20;;
13764;SDS011;6953;48.810;9.204;2022-09-09T00:44:32;0.30;;;0.30;;
13764;SDS011;6953;48.810;9.204;2022-09-09T00:47:12;0.20;;;0.20;;
13764;SDS011;6953;48.810;9.204;2022-09-09T00:52:35;0.30;;;0.30;;
13764;SDS011;6953;48.810;9.204;2022-09-09T00:58:09;0.30;;;0.30;;
13764;SDS011;6953;48.810;9.204;2022-09-09T01:00:39;0.20;;;0.20;;
13764;SDS011;6953;48.810;9.204;2022-09-09T01:03:22;0.30;;;0.30;;
13764;SDS011;6953;48.810;9.204;2022-09-09T01:19:55;0.28;;;0.28;;
13764;SDS011;6953;48.810;9.204;2022-09-09T01:25:30;0.20;;;0.20;;
13764;SDS011;6953;48.810;9.204;2022-09-09T01:28:09;0.30;;;0.30;;
13764;SDS011;6953;48.810;9.204;2022-09-09T01:30:39;0.20;;;0.20;;
13764;SDS011;6953;48.810;9.204;2022-09-09T01:33:07;0.28;;;0.28;;
13764;SDS011;6953;48.810;9.204;2022-09-09T01:38:16;0.30;;;0.30;;
13764;SDS011;6953;48.810;9.204;2022-09-09T01:40:43;0.20;;;0.20;;
13764;SDS011;6953;48.810;9.204;2022-09-09T01:43:08;0.20;;;0.20;;
13764;SDS011;6953;48.810;9.204;2022-09-09T01:45:34;0.20;;;0.20;;
13764;SDS011;6953;48.810;9.204;2022-09-09T01:48:00;0.30;;;0.30;;
13764;SDS011;6953;48.810;9.204;2022-09-09T01:50:27;0.20;;;0.20;;
13764;SDS011;6953;48.810;9.204;2022-09-09T01:52:54;0.20;;;0.20;;
13764;SDS011;6953;48.810;9.204;2022-09-09T01:55:28;0.20;;;0.20;;
13764;SDS011;6953;48.810;9.204;2022-09-09T01:58:01;0.28;;;0.28;;
13764;SDS011;6953;48.810;9.204;2022-09-09T02:00:29;0.30;;;0.30;;
13764;SDS011;6953;48.810;9.204;2022-09-09T02:05:37;0.20;;;0.20;;
13764;SDS011;6953;48.810;9.204;2022-09-09T02:10:33;0.15;;;0.15;;
13764;SDS011;6953;48.810;9.204;2022-09-09T02:13:28;0.30;;;0.30;;
13764;SDS011;6953;48.810;9.204;2022-09-09T02:15:59;0.30;;;0.30;;
13764;SDS011;6953;48.810;9.204;2022-09-09T02:18:35;0.30;;;0.30;;
13764;SDS011;6953;48.810;9.204;2022-09-09T02:21:05;0.20;;;0.20;;
13764;SDS011;6953;48.810;9.204;2022-09-09T02:23:32;0.20;;;0.20;;
13764;SDS011;6953;48.810;9.204;2022-09-09T02:25:59;0.20;;;0.20;;
13764;SDS011;6953;48.810;9.204;2022-09-09T02:28:28;0.30;;;0.30;;
13764;SDS011;6953;48.810;9.204;2022-09-09T02:30:57;0.30;;;0.30;;
13764;SDS011;6953;48.810;9.204;2022-09-09T02:33:24;0.20;;;0.20;;
13764;SDS011;6953;48.810;9.204;2022-09-09T02:35:52;0.30;;;0.30;;
13764;SDS011;6953;48.810;9.204;2022-09-09T02:38:21;0.20;;;0.20;;
13764;SDS011;6953;48.810;9.204;2022-09-09T02:40:53;0.22;;;0.22;;
13764;SDS011;6953;48.810;9.204;2022-09-09T02:43:19;0.20;;;0.20;;
13764;SDS011;6953;48.810;9.204;2022-09-09T02:45:49;0.30;;;0.30;;
13764;SDS011;6953;48.810;9.204;2022-09-09T02:51:18;0.20;;;0.20;;
13764;SDS011;6953;48.810;9.204;2022-09-09T02:56:37;0.30;;;0.30;;
13764;SDS011;6953;48.810;9.204;2022-09-09T02:59:07;0.20;;;0.20;;
13764;SDS011;6953;48.810;9.204;2022-09-09T03:01:32;0.20;;;0.20;;
13764;SDS011;6953;48.810;9.204;2022-09-09T03:03:58;0.20;;;0.20;;
13764;SDS011;6953;48.810;9.204;2022-09-09T03:06:23;0.20;;;0.20;;
13764;SDS011;6953;48.810;9.204;2022-09-09T03:08:49;0.30;;;0.30;;
13764;SDS011;6953;48.810;9.204;2022-09-09T03:11:15;0.20;;;0.20;;
13764;SDS011;6953;48.810;9.204;2022-09-09T03:13:41;0.30;;;0.30;;
13764;SDS011;6953;48.810;9.204;2022-09-09T03:16:06;0.20;;;0.20;;
13764;SDS011;6953;48.810;9.204;2022-09-09T03:18:32;0.30;;;0.30;;
13764;SDS011;6953;48.810;9.204;2022-09-09T03:20:57;0.20;;;0.20;;
13764;SDS011;6953;48.810;9.204;2022-09-09T03:23:24;0.22;;;0.22;;
13764;SDS011;6953;48.810;9.204;2022-09-09T03:25:50;0.30;;;0.30;;
13764;SDS011;6953;48.810;9.204;2022-09-09T03:28:16;0.22;;;0.22;;
13764;SDS011;6953;48.810;9.204;2022-09-09T03:30:42;0.30;;;0.30;;
13764;SDS011;6953;48.810;9.204;2022-09-09T03:33:07;0.30;;;0.30;;
13764;SDS011;6953;48.810;9.204;2022-09-09T03:35:33;0.30;;;0.30;;
13764;SDS011;6953;48.810;9.204;2022-09-09T03:37:58;0.30;;;0.30;;
13764;SDS011;6953;48.810;9.204;2022-09-09T03:40:25;0.30;;;0.30;;
13764;SDS011;6953;48.810;9.204;2022-09-09T03:42:51;0.30;;;0.30;;
13764;SDS011;6953;48.810;9.204;2022-09-09T03:45:16;0.30;;;0.30;;
13764;SDS011;6953;48.810;9.204;2022-09-09T03:47:41;0.20;;;0.20;;
13764;SDS011;6953;48.810;9.204;2022-09-09T03:50:07;0.30;;;0.30;;
13764;SDS011;6953;48.810;9.204;2022-09-09T03:52:38;0.30;;;0.30;;
13764;SDS011;6953;48.810;9.204;2022-09-09T03:55:05;0.30;;;0.30;;
13764;SDS011;6953;48.810;9.204;2022-09-09T03:57:31;0.30;;;0.30;;
13764;SDS011;6953;48.810;9.204;2022-09-09T03:59:59;0.30;;;0.30;;
13764;SDS011;6953;48.810;9.204;2022-09-09T04:02:26;0.20;;;0.20;;
13764;SDS011;6953;48.810;9.204;2022-09-09T04:04:51;0.30;;;0.30;;
13764;SDS011;6953;48.810;9.204;2022-09-09T04:07:17;0.30;;;0.30;;
13764;SDS011;6953;48.810;9.204;2022-09-09T04:09:42;0.30;;;0.30;;
13764;SDS011;6953;48.810;9.204;2022-09-09T04:12:07;0.30;;;0.30;;
13764;SDS011;6953;48.810;9.204;2022-09-09T04:14:33;0.20;;;0.20;;
13764;SDS011;6953;48.810;9.204;2022-09-09T04:16:58;0.20;;;0.20;;
13764;SDS011;6953;48.810;9.204;2022-09-09T04:19:24;0.20;;;0.20;;
13764;SDS011;6953;48.810;9.204;2022-09-09T04:21:50;0.25;;;0.25;;
13764;SDS011;6953;48.810;9.204;2022-09-09T04:24:16;0.30;;;0.30;;
13764;SDS011;6953;48.810;9.204;2022-09-09T04:26:42;0.30;;;0.30;;
13764;SDS011;6953;48.810;9.204;2022-09-09T04:29:07;0.25;;;0.25;;
13764;SDS011;6953;48.810;9.204;2022-09-09T04:31:32;0.30;;;0.30;;
13764;SDS011;6953;48.810;9.204;2022-09-09T04:33:58;0.30;;;0.30;;
13764;SDS011;6953;48.810;9.204;2022-09-09T04:36:27;0.20;;;0.20;;
13764;SDS011;6953;48.810;9.204;2022-09-09T04:38:52;0.30;;;0.30;;
13764;SDS011;6953;48.810;9.204;2022-09-09T04:41:18;0.20;;;0.20;;
13764;SDS011;6953;48.810;9.204;2022-09-09T04:43:43;0.30;;;0.30;;
13764;SDS011;6953;48.810;9.204;2022-09-09T04:46:08;0.20;;;0.20;;
13764;SDS011;6953;48.810;9.204;2022-09-09T04:48:34;0.20;;;0.20;;
13764;SDS011;6953;48.810;9.204;2022-09-09T04:51:06;0.30;;;0.30;;
13764;SDS011;6953;48.810;9.204;2022-09-09T04:53:34;0.25;;;0.25;;
13764;SDS011;6953;48.810;9.204;2022-09-09T04:56:07;0.30;;;0.30;;
13764;SDS011;6953;48.810;9.204;2022-09-09T04:58:32;0.30;;;0.30;;
13764;SDS011;6953;48.810;9.204;2022-09-09T05:03:29;0.30;;;0.30;;
13764;SDS011;6953;48.810;9.204;2022-09-09T05:06:01;0.20;;;0.20;;
13764;SDS011;6953;48.810;9.204;2022-09-09T05:08:30;0.30;;;0.30;;
13764;SDS011;6953;48.810;9.204;2022-09-09T05:10:55;0.20;;;0.20;;
13764;SDS011;6953;48.810;9.204;2022-09-09T05:13:21;0.30;;;0.30;;
13764;SDS011;6953;48.810;9.204;2022-09-09T05:15:51;0.30;;;0.30;;
13764;SDS011;6953;48.810;9.204;2022-09-09T05:18:19;0.30;;;0.30;;
13764;SDS011;6953;48.810;9.204;2022-09-09T05:20:45;0.30;;;0.30;;
13764;SDS011;6953;48.810;9.204;2022-09-09T05:23:10;0.20;;;0.20;;
13764;SDS011;6953;48.810;9.204;2022-09-09T05:25:37;0.20;;;0.20;;
13764;SDS011;6953;48.810;9.204;2022-09-09T05:28:02;0.20;;;0.20;;
13764;SDS011;6953;48.810;9.204;2022-09-09T05:30:28;0.30;;;0.30;;
13764;SDS011;6953;48.810;9.204;2022-09-09T05:32:55;0.20;;;0.20;;
13764;SDS011;6953;48.810;9.204;2022-09-09T05:35:21;0.30;;;0.30;;
13764;SDS011;6953;48.810;9.204;2022-09-09T05:37:47;0.20;;;0.20;;
13764;SDS011;6953;48.810;9.204;2022-09-09T05:40:13;0.20;;;0.20;;
13764;SDS011;6953;48.810;9.204;2022-09-09T05:42:38;0.20;;;0.20;;
13764;SDS011;6953;48.810;9.204;2022-09-09T05:45:04;0.30;;;0.30;;
13764;SDS011;6953;48.810;9.204;2022-09-09T05:47:32;0.30;;;0.30;;
13764;SDS011;6953;48.810;9.204;2022-09-09T05:49:58;0.30;;;0.30;;
13764;SDS011;6953;48.810;9.204;2022-09-09T05:52:23;0.30;;;0.30;;
13764;SDS011;6953;48.810;9.204;2022-09-09T05:54:50;0.20;;;0.20;;
13764;SDS011;6953;48.810;9.204;2022-09-09T05:57:16;0.20;;;0.20;;
13764;SDS011;6953;48.810;9.204;2022-09-09T05:59:42;0.20;;;0.20;;
13764;SDS011;6953;48.810;9.204;2022-09-09T06:02:08;0.30;;;0.30;;
13764;SDS011;6953;48.810;9.204;2022-09-09T06:04:34;0.30;;;0.30;;
13764;SDS011;6953;48.810;9.204;2022-09-09T06:06:59;0.20;;;0.20;;
13764;SDS011;6953;48.810;9.204;2022-09-09T06:09:25;0.20;;;0.20;;
13764;SDS011;6953;48.810;9.204;2022-09-09T06:11:51;0.20;;;0.20;;
13764;SDS011;6953;48.810;9.204;2022-09-09T06:14:16;0.20;;;0.20;;
13764;SDS011;6953;48.810;9.204;2022-09-09T06:16:43;0.28;;;0.28;;
13764;SDS011;6953;48.810;9.204;2022-09-09T06:19:09;0.20;;;0.20;;
13764;SDS011;6953;48.810;9.204;2022-09-09T06:21:36;0.20;;;0.20;;
13764;SDS011;6953;48.810;9.204;2022-09-09T06:24:02;0.20;;;0.20;;
13764;SDS011;6953;48.810;9.204;2022-09-09T06:26:31;0.20;;;0.20;;
13764;SDS011;6953;48.810;9.204;2022-09-09T06:28:58;0.20;;;0.20;;
13764;SDS011;6953;48.810;9.204;2022-09-09T06:31:26;0.20;;;0.20;;
13764;SDS011;6953;48.810;9.204;2022-09-09T06:33:55;0.20;;;0.20;;
13764;SDS011;6953;48.810;9.204;2022-09-09T06:36:23;0.20;;;0.20;;
13764;SDS011;6953;48.810;9.204;2022-09-09T06:38:50;0.20;;;0.20;;
13764;SDS011;6953;48.810;9.204;2022-09-09T06:41:17;0.25;;;0.25;;
13764;SDS011;6953;48.810;9.204;2022-09-09T06:43:44;0.20;;;0.20;;
13764;SDS011;6953;48.810;9.204;2022-09-09T06:46:20;0.25;;;0.25;;
13764;SDS011;6953;48.810;9.204;2022-09-09T06:48:47;0.20;;;0.20;;
13764;SDS011;6953;48.810;9.204;2022-09-09T06:51:15;0.20;;;0.20;;
13764;SDS011;6953;48.810;9.204;2022-09-09T06:53:46;0.10;;;0.10;;
13764;SDS011;6953;48.810;9.204;2022-09-09T06:56:29;0.20;;;0.20;;
13764;SDS011;6953;48.810;9.204;2022-09-09T06:59:00;0.20;;;0.20;;
13764;SDS011;6953;48.810;9.204;2022-09-09T07:01:29;0.10;;;0.10;;
13764;SDS011;6953;48.810;9.204;2022-09-09T07:03:57;0.10;;;0.10;;
13764;SDS011;6953;48.810;9.204;2022-09-09T07:06:26;0.20;;;0.20;;
13764;SDS011;6953;48.810;9.204;2022-09-09T07:08:55;0.10;;;0.10;;
13764;SDS011;6953;48.810;9.204;2022-09-09T07:11:23;0.20;;;0.20;;
13764;SDS011;6953;48.810;9.204;2022-09-09T07:13:51;0.20;;;0.20;;
13764;SDS011;6953;48.810;9.204;2022-09-09T07:16:18;0.20;;;0.20;;
13764;SDS011;6953;48.810;9.204;2022-09-09T07:18:45;0.10;;;0.10;;
13764;SDS011;6953;48.810;9.204;2022-09-09T07:21:13;0.10;;;0.10;;
13764;SDS011;6953;48.810;9.204;2022-09-09T07:23:39;0.17;;;0.17;;
13764;SDS011;6953;48.810;9.204;2022-09-09T07:26:09;0.10;;;0.10;;
13764;SDS011;6953;48.810;9.204;2022-09-09T07:28:36;0.10;;;0.10;;
13764;SDS011;6953;48.810;9.204;2022-09-09T07:31:04;0.10;;;0.10;;
13764;SDS011;6953;48.810;9.204;2022-09-09T07:33:31;0.10;;;0.10;;
13764;SDS011;6953;48.810;9.204;2022-09-09T07:38:37;0.20;;;0.20;;
13764;SDS011;6953;48.810;9.204;2022-09-09T07:41:24;0.10;;;0.10;;
13764;SDS011;6953;48.810;9.204;2022-09-09T07:44:03;0.10;;;0.10;;
13764;SDS011;6953;48.810;9.204;2022-09-09T07:46:31;0.00;;;0.00;;
13764;SDS011;6953;48.810;9.204;2022-09-09T07:48:56;0.10;;;0.10;;
13764;SDS011;6953;48.810;9.204;2022-09-09T07:51:33;0.00;;;0.00;;
13764;SDS011;6953;48.810;9.204;2022-09-09T07:54:01;0.00;;;0.00;;
13764;SDS011;6953;48.810;9.204;2022-09-09T07:56:29;0.08;;;0.08;;
13764;SDS011;6953;48.810;9.204;2022-09-09T07:58:56;0.00;;;0.00;;
13764;SDS011;6953;48.810;9.204;2022-09-09T08:01:27;0.00;;;0.00;;
13764;SDS011;6953;48.810;9.204;2022-09-09T08:06:24;0.00;;;0.00;;
13764;SDS011;6953;48.810;9.204;2022-09-09T08:08:50;0.00;;;0.00;;
13764;SDS011;6953;48.810;9.204;2022-09-09T08:11:16;0.00;;;0.00;;
13764;SDS011;6953;48.810;9.204;2022-09-09T08:13:42;0.00;;;0.00;;
13764;SDS011;6953;48.810;9.204;2022-09-09T08:16:16;0.00;;;0.00;;
13764;SDS011;6953;48.810;9.204;2022-09-09T08:18:43;0.00;;;0.00;;
13764;SDS011;6953;48.810;9.204;2022-09-09T08:21:13;0.00;;;0.00;;
13764;SDS011;6953;48.810;9.204;2022-09-09T08:23:42;0.00;;;0.00;;
13764;SDS011;6953;48.810;9.204;2022-09-09T08:26:13;0.00;;;0.00;;
13764;SDS011;6953;48.810;9.204;2022-09-09T08:28:41;0.00;;;0.00;;
13764;SDS011;6953;48.810;9.204;2022-09-09T08:33:40;0.00;;;0.00;;
13764;SDS011;6953;48.810;9.204;2022-09-09T08:36:08;0.00;;;0.00;;
13764;SDS011;6953;48.810;9.204;2022-09-09T08:38:35;0.00;;;0.00;;
13764;SDS011;6953;48.810;9.204;2022-09-09T08:43:39;0.00;;;0.00;;
13764;SDS011;6953;48.810;9.204;2022-09-09T08:48:58;0.00;;;0.00;;
13764;SDS011;6953;48.810;9.204;2022-09-09T08:51:31;0.00;;;0.00;;
13764;SDS011;6953;48.810;9.204;2022-09-09T08:53:58;0.00;;;0.00;;
13764;SDS011;6953;48.810;9.204;2022-09-09T08:56:28;0.00;;;0.00;;
13764;SDS011;6953;48.810;9.204;2022-09-09T08:58:56;0.00;;;0.00;;
13764;SDS011;6953;48.810;9.204;2022-09-09T09:12:40;0.00;;;0.00;;
13764;SDS011;6953;48.810;9.204;2022-09-09T09:15:26;0.00;;;0.00;;
13764;SDS011;6953;48.810;9.204;2022-09-09T09:18:01;0.00;;;0.00;;
13764;SDS011;6953;48.810;9.204;2022-09-09T09:23:38;0.20;;;0.20;;
13764;SDS011;6953;48.810;9.204;2022-09-09T09:26:10;0.20;;;0.20;;
13764;SDS011;6953;48.810;9.204;2022-09-09T09:28:36;0.20;;;0.20;;
13764;SDS011;6953;48.810;9.204;2022-09-09T09:31:11;0.20;;;0.20;;
13764;SDS011;6953;48.810;9.204;2022-09-09T09:33:51;0.20;;;0.20;;
13764;SDS011;6953;48.810;9.204;2022-09-09T09:36:19;0.30;;;0.30;;
13764;SDS011;6953;48.810;9.204;2022-09-09T09:38:55;0.40;;;0.40;;
13764;SDS011;6953;48.810;9.204;2022-09-09T09:41:56;0.40;;;0.40;;
13764;SDS011;6953;48.810;9.204;2022-09-09T09:44:25;0.40;;;0.40;;
13764;SDS011;6953;48.810;9.204;2022-09-09T09:46:52;0.40;;;0.40;;
13764;SDS011;6953;48.810;9.204;2022-09-09T09:49:18;0.40;;;0.40;;
13764;SDS011;6953;48.810;9.204;2022-09-09T09:51:44;0.40;;;0.40;;
13764;SDS011;6953;48.810;9.204;2022-09-09T09:56:38;0.20;;;0.20;;
13764;SDS011;6953;48.810;9.204;2022-09-09T09:59:05;0.20;;;0.20;;
13764;SDS011;6953;48.810;9.204;2022-09-09T10:01:44;0.10;;;0.10;;
13764;SDS011;6953;48.810;9.204;2022-09-09T10:04:16;0.20;;;0.20;;
13764;SDS011;6953;48.810;9.204;2022-09-09T10:06:45;0.10;;;0.10;;
13764;SDS011;6953;48.810;9.204;2022-09-09T10:09:23;0.10;;;0.10;;
13764;SDS011;6953;48.810;9.204;2022-09-09T10:17:36;0.10;;;0.10;;
13764;SDS011;6953;48.810;9.204;2022-09-09T10:22:34;0.10;;;0.10;;
13764;SDS011;6953;48.810;9.204;2022-09-09T10:33:27;0.10;;;0.10;;
13764;SDS011;6953;48.810;9.204;2022-09-09T10:36:10;0.10;;;0.10;;
13764;SDS011;6953;48.810;9.204;2022-09-09T10:46:57;0.10;;;0.10;;
13764;SDS011;6953;48.810;9.204;2022-09-09T10:52:16;0.10;;;0.10;;
13764;SDS011;6953;48.810;9.204;2022-09-09T10:55:38;0.10;;;0.10;;
13764;SDS011;6953;48.810;9.204;2022-09-09T10:57:46;0.10;;;0.10;;
13764;SDS011;6953;48.810;9.204;2022-09-09T11:00:18;0.17;;;0.17;;
13764;SDS011;6953;48.810;9.204;2022-09-09T11:02:51;0.10;;;0.10;;
13764;SDS011;6953;48.810;9.204;2022-09-09T11:05:31;0.10;;;0.10;;
13764;SDS011;6953;48.810;9.204;2022-09-09T11:08:05;0.10;;;0.10;;
13764;SDS011;6953;48.810;9.204;2022-09-09T11:10:44;0.10;;;0.10;;
13764;SDS011;6953;48.810;9.204;2022-09-09T11:13:21;0.10;;;0.10;;
13764;SDS011;6953;48.810;9.204;2022-09-09T11:16:01;0.10;;;0.10;;
13764;SDS011;6953;48.810;9.204;2022-09-09T11:18:38;0.10;;;0.10;;
13764;SDS011;6953;48.810;9.204;2022-09-09T11:21:10;0.20;;;0.20;;
13764;SDS011;6953;48.810;9.204;2022-09-09T11:23:52;0.20;;;0.20;;
13764;SDS011;6953;48.810;9.204;2022-09-09T11:26:30;0.20;;;0.20;;
13764;SDS011;6953;48.810;9.204;2022-09-09T11:37:21;0.40;;;0.40;;
13764;SDS011;6953;48.810;9.204;2022-09-09T11:40:19;0.30;;;0.30;;
13764;SDS011;6953;48.810;9.204;2022-09-09T11:42:47;0.30;;;0.30;;
13764;SDS011;6953;48.810;9.204;2022-09-09T11:45:22;0.30;;;0.30;;
13764;SDS011;6953;48.810;9.204;2022-09-09T11:47:51;0.20;;;0.20;;
13764;SDS011;6953;48.810;9.204;2022-09-09T11:52:44;0.30;;;0.30;;
13764;SDS011;6953;48.810;9.204;2022-09-09T11:55:33;0.30;;;0.30;;
13764;SDS011;6953;48.810;9.204;2022-09-09T11:58:05;0.35;;;0.35;;
13764;SDS011;6953;48.810;9.204;2022-09-09T12:00:42;0.30;;;0.30;;
13764;SDS011;6953;48.810;9.204;2022-09-09T12:03:32;0.40;;;0.40;;
13764;SDS011;6953;48.810;9.204;2022-09-09T12:06:50;0.30;;;0.30;;
13764;SDS011;6953;48.810;9.204;2022-09-09T12:09:07;0.30;;;0.30;;
13764;SDS011;6953;48.810;9.204;2022-09-09T12:11:41;0.30;;;0.30;;
13764;SDS011;6953;48.810;9.204;2022-09-09T12:14:18;0.20;;;0.20;;
13764;SDS011;6953;48.810;9.204;2022-09-09T12:16:48;0.20;;;0.20;;
13764;SDS011;6953;48.810;9.204;2022-09-09T12:19:19;0.10;;;0.10;;
13764;SDS011;6953;48.810;9.204;2022-09-09T12:24:47;0.10;;;0.10;;
13764;SDS011;6953;48.810;9.204;2022-09-09T12:28:05;0.10;;;0.10;;
13764;SDS011;6953;48.810;9.204;2022-09-09T12:30:31;0.10;;;0.10;;
13764;SDS011;6953;48.810;9.204;2022-09-09T12:33:19;0.10;;;0.10;;
13764;SDS011;6953;48.810;9.204;2022-09-09T12:35:45;0.10;;;0.10;;
13764;SDS011;6953;48.810;9.204;2022-09-09T12:38:22;0.10;;;0.10;;
13764;SDS011;6953;48.810;9.204;2022-09-09T12:40:57;0.10;;;0.10;;
13764;SDS011;6953;48.810;9.204;2022-09-09T12:43:24;0.10;;;0.10;;
13764;SDS011;6953;48.810;9.204;2022-09-09T12:45:53;0.10;;;0.10;;
13764;SDS011;6953;48.810;9.204;2022-09-09T12:48:24;0.10;;;0.10;;
13764;SDS011;6953;48.810;9.204;2022-09-09T12:50:58;0.10;;;0.10;;
13764;SDS011;6953;48.810;9.204;2022-09-09T12:53:26;0.20;;;0.20;;
13764;SDS011;6953;48.810;9.204;2022-09-09T12:56:00;0.20;;;0.20;;
13764;SDS011;6953;48.810;9.204;2022-09-09T12:58:32;0.17;;;0.17;;
13764;SDS011;6953;48.810;9.204;2022-09-09T13:00:58;0.10;;;0.10;;
13764;SDS011;6953;48.810;9.204;2022-09-09T13:03:25;0.10;;;0.10;;
13764;SDS011;6953;48.810;9.204;2022-09-09T13:05:52;0.10;;;0.10;;
13764;SDS011;6953;48.810;9.204;2022-09-09T13:08:18;0.10;;;0.10;;
13764;SDS011;6953;48.810;9.204;2022-09-09T13:10:59;0.10;;;0.10;;
13764;SDS011;6953;48.810;9.204;2022-09-09T13:13:38;0.10;;;0.10;;
13764;SDS011;6953;48.810;9.204;2022-09-09T13:16:06;0.10;;;0.10;;
13764;SDS011;6953;48.810;9.204;2022-09-09T13:18:45;0.10;;;0.10;;
13764;SDS011;6953;48.810;9.204;2022-09-09T13:21:11;0.10;;;0.10;;
13764;SDS011;6953;48.810;9.204;2022-09-09T13:23:37;0.10;;;0.10;;
13764;SDS011;6953;48.810;9.204;2022-09-09T13:26:04;0.10;;;0.10;;
13764;SDS011;6953;48.810;9.204;2022-09-09T13:28:46;0.10;;;0.10;;
13764;SDS011;6953;48.810;9.204;2022-09-09T13:33:54;0.13;;;0.13;;
13764;SDS011;6953;48.810;9.204;2022-09-09T13:36:31;0.20;;;0.20;;
13764;SDS011;6953;48.810;9.204;2022-09-09T13:38:59;0.20;;;0.20;;
13764;SDS011;6953;48.810;9.204;2022-09-09T13:43:59;0.15;;;0.15;;
13764;SDS011;6953;48.810;9.204;2022-09-09T13:46:33;0.15;;;0.15;;
13764;SDS011;6953;48.810;9.204;2022-09-09T13:49:22;0.20;;;0.20;;
13764;SDS011;6953;48.810;9.204;2022-09-09T13:51:48;0.20;;;0.20;;
13764;SDS011;6953;48.810;9.204;2022-09-09T13:54:16;0.20;;;0.20;;
13764;SDS011;6953;48.810;9.204;2022-09-09T13:56:43;0.20;;;0.20;;
13764;SDS011;6953;48.810;9.204;2022-09-09T13:59:13;0.30;;;0.30;;
13764;SDS011;6953;48.810;9.204;2022-09-09T14:01:41;0.30;;;0.30;;
13764;SDS011;6953;48.810;9.204;2022-09-09T14:04:06;0.30;;;0.30;;
13764;SDS011;6953;48.810;9.204;2022-09-09T14:06:34;0.30;;;0.30;;
13764;SDS011;6953;48.810;9.204;2022-09-09T14:09:03;0.30;;;0.30;;
13764;SDS011;6953;48.810;9.204;2022-09-09T14:11:29;0.30;;;0.30;;
13764;SDS011;6953;48.810;9.204;2022-09-09T14:13:54;0.30;;;0.30;;
13764;SDS011;6953;48.810;9.204;2022-09-09T14:16:20;0.20;;;0.20;;
13764;SDS011;6953;48.810;9.204;2022-09-09T14:18:46;0.22;;;0.22;;
13764;SDS011;6953;48.810;9.204;2022-09-09T14:21:12;0.30;;;0.30;;
13764;SDS011;6953;48.810;9.204;2022-09-09T14:23:38;0.30;;;0.30;;
13764;SDS011;6953;48.810;9.204;2022-09-09T14:26:04;0.30;;;0.30;;
13764;SDS011;6953;48.810;9.204;2022-09-09T14:28:30;0.30;;;0.30;;
13764;SDS011;6953;48.810;9.204;2022-09-09T14:30:58;0.30;;;0.30;;
13764;SDS011;6953;48.810;9.204;2022-09-09T14:33:25;0.40;;;0.40;;
13764;SDS011;6953;48.810;9.204;2022-09-09T14:36:00;0.30;;;0.30;;
13764;SDS011;6953;48.810;9.204;2022-09-09T14:38:28;0.40;;;0.40;;
13764;SDS011;6953;48.810;9.204;2022-09-09T14:40:55;0.38;;;0.38;;
13764;SDS011;6953;48.810;9.204;2022-09-09T14:43:21;0.40;;;0.40;;
13764;SDS011;6953;48.810;9.204;2022-09-09T14:45:46;0.22;;;0.22;;
13764;SDS011;6953;48.810;9.204;2022-09-09T14:48:13;0.40;;;0.40;;
13764;SDS011;6953;48.810;9.204;2022-09-09T14:50:40;0.40;;;0.40;;
13764;SDS011;6953;48.810;9.204;2022-09-09T14:53:06;0.30;;;0.30;;
13764;SDS011;6953;48.810;9.204;2022-09-09T14:55:32;0.28;;;0.28;;
13764;SDS011;6953;48.810;9.204;2022-09-09T14:57:57;0.30;;;0.30;;
13764;SDS011;6953;48.810;9.204;2022-09-09T15:00:23;0.40;;;0.40;;
13764;SDS011;6953;48.810;9.204;2022-09-09T15:02:51;0.35;;;0.35;;
13764;SDS011;6953;48.810;9.204;2022-09-09T15:05:18;0.30;;;0.30;;
13764;SDS011;6953;48.810;9.204;2022-09-09T15:07:43;0.30;;;0.30;;
13764;SDS011;6953;48.810;9.204;2022-09-09T15:10:08;0.38;;;0.38;;
13764;SDS011;6953;48.810;9.204;2022-09-09T15:12:35;0.30;;;0.30;;
13764;SDS011;6953;48.810;9.204;2022-09-09T15:15:00;0.30;;;0.30;;
13764;SDS011;6953;48.810;9.204;2022-09-09T15:17:25;0.30;;;0.30;;
13764;SDS011;6953;48.810;9.204;2022-09-09T15:19:52;0.20;;;0.20;;
13764;SDS011;6953;48.810;9.204;2022-09-09T15:22:17;0.30;;;0.30;;
13764;SDS011;6953;48.810;9.204;2022-09-09T15:24:44;0.30;;;0.30;;
13764;SDS011;6953;48.810;9.204;2022-09-09T15:27:09;0.30;;;0.30;;
13764;SDS011;6953;48.810;9.204;2022-09-09T15:29:34;0.30;;;0.30;;
13764;SDS011;6953;48.810;9.204;2022-09-09T15:32:00;0.30;;;0.30;;
13764;SDS011;6953;48.810;9.204;2022-09-09T15:34:25;0.30;;;0.30;;
13764;SDS011;6953;48.810;9.204;2022-09-09T15:36:51;0.20;;;0.20;;
13764;SDS011;6953;48.810;9.204;2022-09-09T15:39:17;0.30;;;0.30;;
13764;SDS011;6953;48.810;9.204;2022-09-09T15:41:46;0.30;;;0.30;;
13764;SDS011;6953;48.810;9.204;2022-09-09T15:44:13;0.30;;;0.30;;
13764;SDS011;6953;48.810;9.204;2022-09-09T15:49:11;0.30;;;0.30;;
13764;SDS011;6953;48.810;9.204;2022-09-09T15:51:43;0.30;;;0.30;;
13764;SDS011;6953;48.810;9.204;2022-09-09T15:54:13;0.30;;;0.30;;
13764;SDS011;6953;48.810;9.204;2022-09-09T15:56:42;0.30;;;0.30;;
13764;SDS011;6953;48.810;9.204;2022-09-09T15:59:08;0.30;;;0.30;;
13764;SDS011;6953;48.810;9.204;2022-09-09T16:01:34;0.30;;;0.30;;
13764;SDS011;6953;48.810;9.204;2022-09-09T16:04:00;0.30;;;0.30;;
13764;SDS011;6953;48.810;9.204;2022-09-09T16:06:26;0.30;;;0.30;;
13764;SDS011;6953;48.810;9.204;2022-09-09T16:08:53;0.30;;;0.30;;
13764;SDS011;6953;48.810;9.204;2022-09-09T16:11:30;0.30;;;0.30;;
13764;SDS011;6953;48.810;9.204;2022-09-09T16:13:58;0.40;;;0.40;;
13764;SDS011;6953;48.810;9.204;2022-09-09T16:16:25;0.40;;;0.40;;
13764;SDS011;6953;48.810;9.204;2022-09-09T16:18:54;0.20;;;0.20;;
13764;SDS011;6953;48.810;9.204;2022-09-09T16:21:22;0.30;;;0.30;;
13764;SDS011;6953;48.810;9.204;2022-09-09T16:24:02;0.30;;;0.30;;
13764;SDS011;6953;48.810;9.204;2022-09-09T16:26:29;0.40;;;0.40;;
13764;SDS011;6953;48.810;9.204;2022-09-09T16:28:57;0.35;;;0.35;;
13764;SDS011;6953;48.810;9.204;2022-09-09T16:31:24;0.32;;;0.32;;
13764;SDS011;6953;48.810;9.204;2022-09-09T16:33:49;0.30;;;0.30;;
13764;SDS011;6953;48.810;9.204;2022-09-09T16:36:16;0.40;;;0.40;;
13764;SDS011;6953;48.810;9.204;2022-09-09T16:38:46;0.50;;;0.50;;
13764;SDS011;6953;48.810;9.204;2022-09-09T16:41:13;0.50;;;0.50;;
13764;SDS011;6953;48.810;9.204;2022-09-09T16:43:39;0.40;;;0.40;;
13764;SDS011;6953;48.810;9.204;2022-09-09T16:46:18;0.50;;;0.50;;
13764;SDS011;6953;48.810;9.204;2022-09-09T16:48:45;0.50;;;0.50;;
13764;SDS011;6953;48.810;9.204;2022-09-09T16:51:16;0.40;;;0.40;;
13764;SDS011;6953;48.810;9.204;2022-09-09T16:53:43;0.60;;;0.60;;
13764;SDS011;6953;48.810;9.204;2022-09-09T16:56:13;0.60;;;0.60;;
13764;SDS011;6953;48.810;9.204;2022-09-09T16:58:41;0.60;;;0.60;;
13764;SDS011;6953;48.810;9.204;2022-09-09T17:01:10;0.65;;;0.65;;
13764;SDS011;6953;48.810;9.204;2022-09-09T17:03:39;0.60;;;0.60;;
13764;SDS011;6953;48.810;9.204;2022-09-09T17:06:08;0.20;;;0.20;;
13764;SDS011;6953;48.810;9.204;2022-09-09T17:08:34;0.38;;;0.38;;
13764;SDS011;6953;48.810;9.204;2022-09-09T17:10:59;0.17;;;0.17;;
13764;SDS011;6953;48.810;9.204;2022-09-09T17:13:25;0.20;;;0.20;;
13764;SDS011;6953;48.810;9.204;2022-09-09T17:15:50;0.10;;;0.10;;
13764;SDS011;6953;48.810;9.204;2022-09-09T17:18:16;0.20;;;0.20;;